Time;durP1;ratioP1;P1;durP2;ratioP2;P2;SDS_P1;SDS_P2;PMS_P1;PMS_P2;Temp;Humidity;BMP_temperature;BMP_pressure;BME280_temperature;BME280_humidity;BME280_pressure;Samples;Min_cycle;Max_cycle;Signal;HPM_P1;HPM_P2
2022/12/02 00:01:14;;;;;;;26.95;3.85;;;;;;;;;;4981392;28;20054;-72
2022/12/02 00:03:40;;;;;;;15.68;3.28;;;;;;;;;;4984308;28;20038;-72
2022/12/02 00:06:18;;;;;;;24.95;3.10;;;;;;;;;;4983708;28;20378;-72
2022/12/02 00:08:43;;;;;;;23.05;3.53;;;;;;;;;;4983429;28;20046;-73
2022/12/02 00:11:28;;;;;;;14.93;3.33;;;;;;;;;;4988507;28;20043;-72
2022/12/02 00:13:59;;;;;;;22.15;3.38;;;;;;;;;;4979407;28;20046;-72
2022/12/02 00:16:25;;;;;;;29.95;3.55;;;;;;;;;;4976891;28;20046;-72
2022/12/02 00:18:52;;;;;;;17.55;3.47;;;;;;;;;;4983705;28;20152;-72
2022/12/02 00:21:18;;;;;;;45.85;4.30;;;;;;;;;;4989372;28;20065;-72
2022/12/02 00:23:44;;;;;;;34.28;3.42;;;;;;;;;;4990775;28;20395;-72
2022/12/02 00:26:10;;;;;;;36.03;4.43;;;;;;;;;;4989510;28;20042;-72
2022/12/02 00:28:35;;;;;;;18.00;3.47;;;;;;;;;;4987284;28;20058;-72
2022/12/02 00:31:00;;;;;;;27.80;4.60;;;;;;;;;;4986173;28;20475;-71
2022/12/02 00:33:26;;;;;;;75.00;6.07;;;;;;;;;;4985719;28;20035;-73
2022/12/02 00:35:51;;;;;;;49.30;8.40;;;;;;;;;;4979136;28;20082;-72
2022/12/02 00:38:17;;;;;;;106.00;11.52;;;;;;;;;;4992112;28;20049;-71
2022/12/02 00:40:42;;;;;;;50.80;7.60;;;;;;;;;;4978084;28;20439;-71
2022/12/02 00:48:35;;;;;;;36.25;5.72;;;;;;;;;;4990905;28;20445;-72
2022/12/02 00:51:01;;;;;;;34.20;5.72;;;;;;;;;;4984198;28;20034;-72
2022/12/02 00:53:26;;;;;;;20.85;4.97;;;;;;;;;;4988522;28;20038;-73
2022/12/02 00:55:52;;;;;;;20.45;5.85;;;;;;;;;;4980331;28;20039;-72
2022/12/02 00:58:17;;;;;;;35.63;6.85;;;;;;;;;;4984176;28;20102;-71
2022/12/02 01:00:43;;;;;;;26.30;5.20;;;;;;;;;;4992124;28;20482;-72
2022/12/02 01:03:08;;;;;;;52.65;5.65;;;;;;;;;;4990543;28;20402;-72
2022/12/02 01:05:34;;;;;;;29.55;6.57;;;;;;;;;;4987579;28;20065;-73
2022/12/02 01:07:59;;;;;;;31.42;5.72;;;;;;;;;;4993174;28;20046;-72
2022/12/02 01:10:25;;;;;;;36.50;5.40;;;;;;;;;;4988027;28;20030;-72
2022/12/02 01:12:50;;;;;;;42.03;5.82;;;;;;;;;;4986591;28;20130;-71
2022/12/02 01:15:15;;;;;;;20.05;5.60;;;;;;;;;;4981808;28;20122;-73
2022/12/02 01:17:41;;;;;;;28.55;5.38;;;;;;;;;;4985446;28;20027;-72
2022/12/02 01:20:07;;;;;;;26.63;5.20;;;;;;;;;;4987841;28;20078;-72
2022/12/02 01:22:32;;;;;;;24.08;5.72;;;;;;;;;;4983203;28;20483;-72
2022/12/02 01:24:58;;;;;;;72.22;7.05;;;;;;;;;;4981975;28;20038;-72
2022/12/02 01:27:23;;;;;;;16.70;4.35;;;;;;;;;;4982100;28;20074;-72
2022/12/02 01:29:49;;;;;;;73.22;6.85;;;;;;;;;;4984645;28;20046;-72
2022/12/02 01:32:14;;;;;;;16.15;4.22;;;;;;;;;;4983958;28;20035;-71
2022/12/02 01:34:41;;;;;;;12.90;4.50;;;;;;;;;;4987558;28;20443;-72
2022/12/02 01:37:06;;;;;;;9.80;3.67;;;;;;;;;;4984987;28;20166;-72
2022/12/02 01:39:32;;;;;;;10.68;4.20;;;;;;;;;;4984784;28;20122;-72
2022/12/02 01:41:57;;;;;;;10.07;4.20;;;;;;;;;;4982954;28;20046;-72
2022/12/02 01:44:23;;;;;;;9.23;3.38;;;;;;;;;;4975023;28;20043;-71
2022/12/02 01:46:48;;;;;;;11.63;3.72;;;;;;;;;;4981595;28;20550;-72
2022/12/02 01:49:13;;;;;;;11.18;3.53;;;;;;;;;;4979952;28;20499;-72
2022/12/02 01:51:39;;;;;;;11.35;3.55;;;;;;;;;;4985208;28;20133;-72
2022/12/02 01:54:04;;;;;;;9.50;3.42;;;;;;;;;;4983800;28;20467;-72
2022/12/02 01:56:30;;;;;;;7.97;3.58;;;;;;;;;;4980888;28;20073;-72
2022/12/02 01:58:55;;;;;;;9.07;4.00;;;;;;;;;;4977020;28;20041;-72
2022/12/02 02:01:26;;;;;;;10.93;3.70;;;;;;;;;;4984685;28;20047;-72
2022/12/02 02:03:51;;;;;;;7.78;3.58;;;;;;;;;;4982396;28;20043;-72
2022/12/02 02:06:16;;;;;;;7.53;3.70;;;;;;;;;;4984609;28;20085;-72
2022/12/02 02:08:42;;;;;;;7.18;3.28;;;;;;;;;;4982582;28;20105;-72
2022/12/02 02:11:07;;;;;;;8.15;3.60;;;;;;;;;;4981744;28;20376;-72
2022/12/02 02:13:32;;;;;;;13.27;3.60;;;;;;;;;;4988241;28;20035;-72
2022/12/02 02:15:58;;;;;;;9.48;3.83;;;;;;;;;;4989469;28;20459;-72
2022/12/02 02:18:23;;;;;;;9.43;3.80;;;;;;;;;;5016201;28;20038;-72
2022/12/02 02:20:49;;;;;;;9.15;3.75;;;;;;;;;;4985485;28;20483;-72
2022/12/02 02:23:21;;;;;;;16.08;4.50;;;;;;;;;;4983088;28;20034;-72
2022/12/02 02:25:50;;;;;;;7.80;3.40;;;;;;;;;;4978277;28;20049;-72
2022/12/02 02:28:15;;;;;;;10.43;4.30;;;;;;;;;;4991497;28;20073;-72
2022/12/02 02:30:41;;;;;;;12.32;4.38;;;;;;;;;;4991269;28;20057;-72
2022/12/02 02:33:07;;;;;;;16.00;5.15;;;;;;;;;;4987785;28;20114;-72
2022/12/02 02:35:35;;;;;;;11.98;3.88;;;;;;;;;;4993015;28;20054;-73
2022/12/02 02:38:00;;;;;;;6.75;2.53;;;;;;;;;;4987342;28;20094;-72
2022/12/02 02:40:27;;;;;;;6.57;3.33;;;;;;;;;;4980843;28;20046;-72
2022/12/02 02:42:54;;;;;;;6.88;3.08;;;;;;;;;;4984615;28;20050;-72
2022/12/02 02:45:21;;;;;;;9.50;3.20;;;;;;;;;;4983360;28;20397;-72
2022/12/02 02:47:47;;;;;;;8.27;3.67;;;;;;;;;;4984095;28;20133;-72
2022/12/02 02:50:13;;;;;;;13.15;3.40;;;;;;;;;;4980845;28;20648;-72
2022/12/02 02:52:38;;;;;;;10.63;3.30;;;;;;;;;;4982168;28;20038;-72
2022/12/02 02:55:05;;;;;;;13.38;3.47;;;;;;;;;;4990908;28;20041;-72
2022/12/02 02:57:31;;;;;;;9.80;3.90;;;;;;;;;;4983463;28;20105;-72
2022/12/02 02:59:57;;;;;;;11.82;3.70;;;;;;;;;;4987300;28;20483;-71
2022/12/02 03:02:22;;;;;;;17.55;4.40;;;;;;;;;;4984103;28;20039;-72
2022/12/02 03:04:48;;;;;;;18.05;3.80;;;;;;;;;;4981762;28;20089;-72
2022/12/02 03:07:14;;;;;;;36.38;3.92;;;;;;;;;;4988465;28;20110;-72
2022/12/02 03:09:39;;;;;;;22.27;3.05;;;;;;;;;;5017842;28;20117;-72
2022/12/02 03:12:05;;;;;;;18.25;3.45;;;;;;;;;;4989530;28;20494;-72
2022/12/02 03:14:31;;;;;;;54.55;4.07;;;;;;;;;;4984934;28;20529;-72
2022/12/02 03:16:58;;;;;;;32.55;3.40;;;;;;;;;;4990267;28;20039;-71
2022/12/02 03:19:24;;;;;;;30.40;3.35;;;;;;;;;;4988136;28;20478;-72
2022/12/02 03:21:49;;;;;;;12.55;2.83;;;;;;;;;;4978570;28;20038;-72
2022/12/02 03:24:15;;;;;;;5.82;2.80;;;;;;;;;;4977557;28;20038;-73
2022/12/02 03:26:41;;;;;;;8.20;2.40;;;;;;;;;;4977437;28;20081;-72
2022/12/02 03:29:08;;;;;;;29.17;2.67;;;;;;;;;;4978022;28;20037;-72
2022/12/02 03:31:33;;;;;;;10.77;3.10;;;;;;;;;;4984168;28;20038;-72
2022/12/02 03:33:59;;;;;;;5.22;2.40;;;;;;;;;;4981949;28;20088;-72
2022/12/02 03:36:25;;;;;;;6.22;2.45;;;;;;;;;;4981847;28;20031;-72
2022/12/02 03:38:51;;;;;;;19.23;3.25;;;;;;;;;;4988619;28;20489;-72
2022/12/02 03:41:17;;;;;;;7.07;2.67;;;;;;;;;;4986392;28;20116;-71
2022/12/02 03:43:42;;;;;;;4.65;2.40;;;;;;;;;;4980754;28;20037;-71
2022/12/02 03:46:08;;;;;;;4.80;2.28;;;;;;;;;;4986975;28;20046;-72
2022/12/02 03:48:37;;;;;;;8.50;2.60;;;;;;;;;;4986404;28;20053;-72
2022/12/02 03:51:03;;;;;;;6.57;1.80;;;;;;;;;;4990554;28;20505;-71
2022/12/02 03:53:29;;;;;;;5.40;1.83;;;;;;;;;;4988981;28;20035;-71
2022/12/02 03:55:55;;;;;;;4.82;2.03;;;;;;;;;;4980301;28;20046;-71
2022/12/02 03:58:56;;;;;;;3.80;2.15;;;;;;;;;;4983693;28;20030;-72
2022/12/02 04:01:22;;;;;;;6.10;2.10;;;;;;;;;;4978299;28;20113;-71
2022/12/02 04:03:48;;;;;;;4.57;2.13;;;;;;;;;;4982648;28;20027;-71
2022/12/02 04:06:13;;;;;;;7.13;1.92;;;;;;;;;;4987955;28;20042;-72
2022/12/02 04:08:39;;;;;;;9.65;2.30;;;;;;;;;;4985288;28;20386;-72
2022/12/02 04:11:05;;;;;;;16.52;2.22;;;;;;;;;;4986530;28;20030;-72
2022/12/02 04:13:31;;;;;;;7.15;1.90;;;;;;;;;;4985995;28;20050;-71
2022/12/02 04:15:56;;;;;;;10.82;2.00;;;;;;;;;;4990522;28;20049;-71
2022/12/02 04:18:22;;;;;;;8.60;2.60;;;;;;;;;;4985826;28;20046;-71
2022/12/02 04:20:48;;;;;;;7.25;1.88;;;;;;;;;;4987612;28;20046;-71
2022/12/02 04:23:13;;;;;;;12.27;2.53;;;;;;;;;;4979405;28;20088;-73
2022/12/02 04:25:39;;;;;;;13.60;2.78;;;;;;;;;;4984368;28;20042;-72
2022/12/02 04:28:04;;;;;;;5.28;2.58;;;;;;;;;;4985208;28;20141;-71
2022/12/02 04:30:29;;;;;;;4.82;2.00;;;;;;;;;;4985569;28;20070;-71
2022/12/02 04:32:55;;;;;;;5.00;2.15;;;;;;;;;;4984687;28;20090;-72
2022/12/02 04:35:20;;;;;;;13.95;2.17;;;;;;;;;;4991095;28;20041;-71
2022/12/02 04:37:45;;;;;;;7.88;2.33;;;;;;;;;;4984413;28;20043;-71
2022/12/02 04:40:11;;;;;;;4.45;2.25;;;;;;;;;;4991194;28;20026;-72
2022/12/02 04:42:37;;;;;;;8.43;2.33;;;;;;;;;;4983744;28;20562;-72
2022/12/02 04:45:02;;;;;;;5.30;1.95;;;;;;;;;;4981194;28;20042;-71
2022/12/02 04:47:28;;;;;;;8.77;2.80;;;;;;;;;;4981276;28;20054;-72
2022/12/02 04:49:53;;;;;;;4.65;2.58;;;;;;;;;;4984422;28;20138;-71
2022/12/02 04:52:18;;;;;;;11.32;2.72;;;;;;;;;;4983370;28;20117;-71
2022/12/02 04:54:44;;;;;;;6.15;2.55;;;;;;;;;;4983018;28;20035;-71
2022/12/02 04:57:09;;;;;;;5.07;2.53;;;;;;;;;;4980975;28;20074;-72
2022/12/02 04:59:35;;;;;;;5.43;2.40;;;;;;;;;;4987880;28;20038;-72
2022/12/02 05:02:00;;;;;;;4.03;2.20;;;;;;;;;;4986018;28;20127;-72
2022/12/02 05:04:25;;;;;;;5.40;2.40;;;;;;;;;;4991916;28;20045;-72
2022/12/02 05:06:51;;;;;;;7.13;3.03;;;;;;;;;;4985814;28;20105;-72
2022/12/02 05:09:16;;;;;;;8.25;2.53;;;;;;;;;;4986514;28;20109;-72
2022/12/02 05:11:42;;;;;;;4.78;2.35;;;;;;;;;;4987286;28;20430;-72
2022/12/02 05:14:07;;;;;;;9.07;2.33;;;;;;;;;;4984570;28;20045;-71
2022/12/02 05:16:33;;;;;;;3.10;1.98;;;;;;;;;;4985053;28;20466;-72
2022/12/02 05:18:58;;;;;;;4.95;2.13;;;;;;;;;;4983935;28;20047;-71
2022/12/02 05:21:23;;;;;;;4.15;2.00;;;;;;;;;;4979529;28;20043;-72
2022/12/02 05:23:49;;;;;;;11.23;2.42;;;;;;;;;;4976001;28;20391;-72
2022/12/02 05:26:14;;;;;;;5.28;2.30;;;;;;;;;;4987467;28;20026;-72
2022/12/02 05:28:39;;;;;;;5.25;2.70;;;;;;;;;;4988592;28;20402;-72
2022/12/02 05:31:05;;;;;;;6.35;2.28;;;;;;;;;;4980429;28;20056;-71
2022/12/02 05:33:30;;;;;;;4.80;2.08;;;;;;;;;;4985053;28;20046;-72
2022/12/02 05:35:56;;;;;;;5.90;2.60;;;;;;;;;;4980739;28;20053;-72
2022/12/02 05:38:21;;;;;;;6.47;2.42;;;;;;;;;;4992603;28;20530;-72
2022/12/02 05:40:46;;;;;;;5.80;2.63;;;;;;;;;;4984239;28;20034;-72
2022/12/02 05:43:21;;;;;;;5.07;2.72;;;;;;;;;;4978000;28;20494;-72
2022/12/02 05:45:46;;;;;;;5.20;2.90;;;;;;;;;;4981530;28;20414;-72
2022/12/02 05:48:13;;;;;;;6.07;2.50;;;;;;;;;;4980468;28;20100;-73
2022/12/02 05:50:40;;;;;;;5.03;2.38;;;;;;;;;;4988293;28;20405;-73
2022/12/02 05:53:06;;;;;;;4.63;2.72;;;;;;;;;;4981589;28;20038;-72
2022/12/02 05:55:34;;;;;;;5.72;2.50;;;;;;;;;;4986603;28;20388;-72
2022/12/02 05:58:00;;;;;;;5.85;2.63;;;;;;;;;;4979138;28;20026;-72
2022/12/02 06:00:26;;;;;;;4.07;2.05;;;;;;;;;;4983390;28;20030;-71
2022/12/02 06:02:53;;;;;;;3.88;2.17;;;;;;;;;;4979833;28;20542;-71
2022/12/02 06:05:37;;;;;;;4.70;2.20;;;;;;;;;;4980593;28;20065;-72
2022/12/02 06:08:23;;;;;;;7.38;2.42;;;;;;;;;;4986176;28;20034;-72
2022/12/02 06:10:53;;;;;;;6.15;2.63;;;;;;;;;;4967766;28;20542;-71
2022/12/02 06:13:22;;;;;;;4.95;2.70;;;;;;;;;;4976895;28;20480;-72
2022/12/02 06:15:48;;;;;;;5.22;2.50;;;;;;;;;;4975905;28;20041;-72
2022/12/02 06:18:19;;;;;;;6.82;3.55;;;;;;;;;;4979280;28;20046;-72
2022/12/02 06:20:46;;;;;;;12.85;3.60;;;;;;;;;;4981962;28;20113;-72
2022/12/02 06:23:14;;;;;;;6.82;2.55;;;;;;;;;;4981370;28;20042;-72
2022/12/02 06:25:40;;;;;;;7.22;2.97;;;;;;;;;;4986437;28;20048;-72
2022/12/02 06:28:28;;;;;;;7.15;2.88;;;;;;;;;;4987362;28;20038;-72
2022/12/02 06:30:56;;;;;;;8.70;3.67;;;;;;;;;;4979520;28;20049;-71
2022/12/02 06:33:28;;;;;;;6.97;3.10;;;;;;;;;;4981664;28;20077;-72
2022/12/02 06:35:54;;;;;;;5.20;2.53;;;;;;;;;;4979939;28;20045;-71
2022/12/02 06:38:36;;;;;;;6.22;2.90;;;;;;;;;;4980307;28;20034;-72
2022/12/02 06:41:13;;;;;;;6.82;3.60;;;;;;;;;;4972210;28;20042;-72
2022/12/02 06:43:38;;;;;;;6.15;3.10;;;;;;;;;;4973816;28;20031;-73
2022/12/02 06:46:12;;;;;;;14.02;2.83;;;;;;;;;;4984350;28;20501;-72
2022/12/02 06:48:38;;;;;;;6.40;3.30;;;;;;;;;;4974243;28;20076;-72
2022/12/02 06:51:21;;;;;;;6.50;2.88;;;;;;;;;;4976968;28;20431;-72
2022/12/02 06:53:47;;;;;;;4.90;2.80;;;;;;;;;;4966636;28;20039;-72
2022/12/02 06:56:15;;;;;;;5.72;2.88;;;;;;;;;;4981603;28;20038;-72
2022/12/02 06:58:55;;;;;;;5.65;2.97;;;;;;;;;;4990370;28;20153;-72
2022/12/02 07:01:37;;;;;;;5.70;2.75;;;;;;;;;;4986575;28;20509;-72
2022/12/02 07:04:08;;;;;;;5.00;2.92;;;;;;;;;;4990043;28;20088;-72
2022/12/02 07:06:40;;;;;;;7.20;3.05;;;;;;;;;;4986265;28;20493;-71
2022/12/02 07:09:14;;;;;;;6.15;2.58;;;;;;;;;;4987932;28;20104;-72
2022/12/02 07:11:50;;;;;;;4.65;2.60;;;;;;;;;;4982074;28;20490;-72
2022/12/02 07:14:40;;;;;;;6.05;2.78;;;;;;;;;;4985296;28;20061;-73
2022/12/02 07:17:14;;;;;;;5.38;2.55;;;;;;;;;;4984581;28;20037;-73
2022/12/02 07:19:41;;;;;;;;;;;;;;;;;;4989159;28;20047;-73
2022/12/02 07:22:24;;;;;;;4.93;2.53;;;;;;;;;;5022260;28;19965;-72
2022/12/02 07:25:16;;;;;;;4.05;2.35;;;;;;;;;;4986834;28;20070;-73
2022/12/02 07:27:48;;;;;;;4.80;2.72;;;;;;;;;;4990142;28;20085;-73
2022/12/02 07:30:35;;;;;;;5.78;2.33;;;;;;;;;;4988695;28;20039;-72
2022/12/02 07:33:01;;;;;;;5.93;2.53;;;;;;;;;;4984082;28;20438;-73
2022/12/02 07:35:27;;;;;;;4.28;2.35;;;;;;;;;;4984714;28;20541;-72
2022/12/02 07:37:53;;;;;;;9.57;2.53;;;;;;;;;;4978997;28;20383;-72
2022/12/02 07:40:19;;;;;;;4.18;2.40;;;;;;;;;;4981336;28;20038;-72
2022/12/02 07:42:44;;;;;;;5.05;2.83;;;;;;;;;;4979037;28;20043;-72
2022/12/02 07:45:11;;;;;;;6.78;2.67;;;;;;;;;;4985045;28;20380;-72
2022/12/02 07:47:36;;;;;;;7.03;2.47;;;;;;;;;;4986841;28;20443;-72
2022/12/02 07:50:04;;;;;;;5.78;2.90;;;;;;;;;;4979804;28;20059;-72
2022/12/02 07:52:29;;;;;;;5.68;2.92;;;;;;;;;;4979954;28;20089;-72
2022/12/02 07:54:55;;;;;;;5.78;2.30;;;;;;;;;;4978493;28;20026;-73
2022/12/02 07:57:21;;;;;;;12.10;2.63;;;;;;;;;;4981383;28;20559;-73
2022/12/02 07:59:46;;;;;;;5.57;2.55;;;;;;;;;;4981981;28;20118;-72
2022/12/02 08:02:11;;;;;;;5.75;2.50;;;;;;;;;;4985488;28;20102;-73
2022/12/02 08:04:37;;;;;;;3.90;1.85;;;;;;;;;;4981831;28;20053;-72
2022/12/02 08:07:02;;;;;;;4.75;2.45;;;;;;;;;;4979664;28;20062;-72
2022/12/02 08:09:28;;;;;;;4.50;2.53;;;;;;;;;;4982333;28;20031;-72
2022/12/02 08:11:53;;;;;;;4.13;2.20;;;;;;;;;;4981565;28;20046;-72
2022/12/02 08:14:18;;;;;;;5.13;2.50;;;;;;;;;;4980747;28;20427;-72
2022/12/02 08:16:44;;;;;;;5.70;3.00;;;;;;;;;;4980701;28;20458;-72
2022/12/02 08:19:09;;;;;;;8.02;3.28;;;;;;;;;;4979313;28;20043;-72
2022/12/02 08:21:35;;;;;;;9.23;2.72;;;;;;;;;;4983975;28;20035;-71
2022/12/02 08:24:00;;;;;;;5.32;2.70;;;;;;;;;;4983255;28;20038;-72
2022/12/02 08:26:26;;;;;;;5.28;2.90;;;;;;;;;;4976822;28;20125;-71
2022/12/02 08:28:52;;;;;;;11.18;3.33;;;;;;;;;;4979763;28;20042;-71
2022/12/02 08:31:17;;;;;;;5.30;3.00;;;;;;;;;;4975544;28;20034;-73
2022/12/02 08:33:43;;;;;;;5.38;2.97;;;;;;;;;;4966620;28;20030;-72
2022/12/02 08:36:08;;;;;;;5.80;2.90;;;;;;;;;;4976080;28;20166;-72
2022/12/02 08:38:33;;;;;;;6.75;2.75;;;;;;;;;;4975436;28;20491;-71
2022/12/02 08:40:59;;;;;;;8.02;3.03;;;;;;;;;;4973848;28;20114;-72
2022/12/02 08:43:24;;;;;;;6.50;3.40;;;;;;;;;;4979837;28;20109;-72
2022/12/02 08:45:50;;;;;;;8.40;3.30;;;;;;;;;;4972794;28;20138;-72
2022/12/02 08:48:15;;;;;;;6.30;3.20;;;;;;;;;;4972670;28;20439;-72
2022/12/02 08:50:40;;;;;;;5.80;2.85;;;;;;;;;;4975824;28;20034;-73
2022/12/02 08:53:08;;;;;;;5.78;3.28;;;;;;;;;;4980073;28;20104;-72
2022/12/02 08:55:37;;;;;;;6.93;3.20;;;;;;;;;;4978645;28;20378;-73
2022/12/02 08:58:03;;;;;;;7.43;3.35;;;;;;;;;;4958757;28;20192;-72
2022/12/02 09:00:28;;;;;;;7.28;2.97;;;;;;;;;;4980074;28;20103;-72
2022/12/02 09:02:54;;;;;;;5.85;2.88;;;;;;;;;;4967634;28;20023;-72
2022/12/02 09:05:19;;;;;;;5.72;3.50;;;;;;;;;;4972449;28;20511;-72
2022/12/02 09:07:45;;;;;;;5.78;2.70;;;;;;;;;;4968279;28;20038;-72
2022/12/02 09:10:11;;;;;;;6.18;3.58;;;;;;;;;;4973324;28;20039;-72
2022/12/02 09:12:37;;;;;;;5.63;3.28;;;;;;;;;;4978342;28;20050;-72
2022/12/02 09:15:06;;;;;;;8.07;3.83;;;;;;;;;;4971516;28;20406;-72
2022/12/02 09:17:31;;;;;;;6.63;3.75;;;;;;;;;;4983637;28;20038;-72
2022/12/02 09:19:56;;;;;;;10.75;4.32;;;;;;;;;;4978388;28;20372;-71
2022/12/02 09:22:22;;;;;;;7.85;4.10;;;;;;;;;;4977109;28;20146;-72
2022/12/02 09:24:47;;;;;;;8.77;3.72;;;;;;;;;;4981381;28;20113;-72
2022/12/02 09:27:13;;;;;;;6.60;3.50;;;;;;;;;;4975803;28;20061;-72
2022/12/02 09:29:38;;;;;;;5.78;3.15;;;;;;;;;;4973207;28;20034;-72
2022/12/02 09:32:04;;;;;;;6.90;3.50;;;;;;;;;;4972047;28;20453;-72
2022/12/02 09:34:29;;;;;;;6.78;3.60;;;;;;;;;;4976494;28;20034;-72
2022/12/02 09:36:54;;;;;;;7.07;3.47;;;;;;;;;;4977113;28;20042;-72
2022/12/02 09:39:20;;;;;;;6.57;3.55;;;;;;;;;;4979049;28;20088;-72
2022/12/02 09:41:45;;;;;;;6.45;3.17;;;;;;;;;;4974432;28;20042;-72
2022/12/02 09:44:11;;;;;;;6.05;3.13;;;;;;;;;;4974068;28;20034;-72
2022/12/02 09:46:36;;;;;;;7.35;3.15;;;;;;;;;;4970699;28;20042;-72
2022/12/02 09:49:03;;;;;;;6.07;3.40;;;;;;;;;;4943661;28;20081;-72
2022/12/02 09:51:28;;;;;;;5.70;3.15;;;;;;;;;;4974273;28;20038;-72
2022/12/02 09:53:54;;;;;;;6.50;3.55;;;;;;;;;;4980283;28;20049;-72
2022/12/02 09:56:20;;;;;;;9.27;2.83;;;;;;;;;;4979506;28;20093;-72
2022/12/02 09:58:48;;;;;;;5.95;3.15;;;;;;;;;;4976349;28;20066;-73
2022/12/02 10:01:13;;;;;;;6.05;3.42;;;;;;;;;;4974263;28;20039;-72
2022/12/02 10:03:39;;;;;;;6.53;2.92;;;;;;;;;;4975300;28;20375;-72
2022/12/02 10:06:07;;;;;;;5.07;3.33;;;;;;;;;;4972971;28;20431;-73
2022/12/02 10:08:33;;;;;;;7.97;4.32;;;;;;;;;;4978018;28;20042;-73
2022/12/02 10:10:58;;;;;;;6.38;3.25;;;;;;;;;;4972101;28;20383;-72
2022/12/02 10:13:25;;;;;;;9.70;3.38;;;;;;;;;;4975145;28;20049;-72
2022/12/02 10:15:51;;;;;;;7.03;3.42;;;;;;;;;;4972824;28;20066;-72
2022/12/02 10:18:27;;;;;;;8.00;3.72;;;;;;;;;;4969932;28;20046;-72
2022/12/02 10:20:53;;;;;;;7.18;3.38;;;;;;;;;;4971530;28;20122;-72
2022/12/02 10:23:23;;;;;;;7.00;3.78;;;;;;;;;;4969747;28;20126;-72
2022/12/02 10:25:54;;;;;;;6.70;3.97;;;;;;;;;;4978110;28;20022;-73
2022/12/02 10:28:22;;;;;;;7.63;3.42;;;;;;;;;;4980619;28;20113;-72
2022/12/02 10:30:54;;;;;;;5.20;2.92;;;;;;;;;;4981591;28;20096;-72
2022/12/02 10:33:23;;;;;;;7.60;3.40;;;;;;;;;;4974402;28;20058;-73
2022/12/02 10:35:50;;;;;;;7.53;3.25;;;;;;;;;;5017785;28;20106;-72
2022/12/02 10:38:37;;;;;;;6.72;3.38;;;;;;;;;;4975515;28;20043;-72
2022/12/02 10:41:11;;;;;;;7.90;3.88;;;;;;;;;;4982822;28;20109;-72
2022/12/02 10:43:37;;;;;;;7.38;3.80;;;;;;;;;;4983615;28;20038;-72
2022/12/02 10:46:02;;;;;;;6.15;3.47;;;;;;;;;;4980762;28;20046;-72
2022/12/02 10:48:28;;;;;;;6.78;3.58;;;;;;;;;;4981217;28;20051;-71
2022/12/02 10:50:54;;;;;;;5.63;3.30;;;;;;;;;;4979577;28;20022;-72
2022/12/02 10:53:24;;;;;;;5.25;2.78;;;;;;;;;;4973107;28;20062;-72
2022/12/02 10:55:50;;;;;;;6.70;3.35;;;;;;;;;;4974724;28;20109;-72
2022/12/02 10:58:27;;;;;;;6.60;3.17;;;;;;;;;;4976458;28;20138;-72
2022/12/02 11:00:52;;;;;;;6.85;3.50;;;;;;;;;;4975664;28;20090;-73
2022/12/02 11:03:19;;;;;;;5.70;3.00;;;;;;;;;;4974655;28;20066;-72
2022/12/02 11:05:45;;;;;;;6.47;3.17;;;;;;;;;;4978509;28;20034;-73
2022/12/02 11:08:25;;;;;;;6.22;3.38;;;;;;;;;;4976150;28;20039;-72
2022/12/02 11:11:13;;;;;;;8.77;3.40;;;;;;;;;;4978246;28;20031;-72
2022/12/02 11:13:53;;;;;;;7.22;3.17;;;;;;;;;;4979460;28;20049;-72
2022/12/02 11:16:28;;;;;;;7.30;3.45;;;;;;;;;;4975420;28;20506;-72
2022/12/02 11:18:57;;;;;;;8.10;3.40;;;;;;;;;;4980761;28;20046;-72
2022/12/02 11:21:28;;;;;;;8.18;3.25;;;;;;;;;;4980619;28;20042;-72
2022/12/02 11:24:21;;;;;;;6.90;2.95;;;;;;;;;;4988297;28;20490;-73
2022/12/02 11:26:59;;;;;;;5.80;3.45;;;;;;;;;;4989035;28;20026;-72
2022/12/02 11:29:36;;;;;;;6.53;3.05;;;;;;;;;;4988440;28;20052;-73
2022/12/02 11:32:18;;;;;;;7.32;2.83;;;;;;;;;;4969092;28;20066;-72
2022/12/02 11:34:59;;;;;;;5.68;3.10;;;;;;;;;;4987315;28;20505;-72
2022/12/02 11:37:25;;;;;;;9.73;3.60;;;;;;;;;;4990462;28;20034;-72
2022/12/02 11:39:55;;;;;;;8.00;3.45;;;;;;;;;;4979113;28;20054;-72
2022/12/02 11:42:22;;;;;;;4.70;2.90;;;;;;;;;;4980344;28;20023;-72
2022/12/02 11:44:48;;;;;;;5.63;3.10;;;;;;;;;;4976937;28;20486;-72
2022/12/02 11:47:27;;;;;;;8.70;3.13;;;;;;;;;;4977757;28;20077;-72
2022/12/02 11:49:53;;;;;;;5.40;3.30;;;;;;;;;;4972779;28;20062;-72
2022/12/02 11:52:21;;;;;;;5.47;3.33;;;;;;;;;;4974269;28;20096;-73
2022/12/02 11:54:58;;;;;;;5.93;3.50;;;;;;;;;;4976382;28;20459;-73
2022/12/02 11:57:28;;;;;;;5.60;2.92;;;;;;;;;;4975223;28;20039;-72
2022/12/02 11:59:54;;;;;;;6.88;3.35;;;;;;;;;;4972579;28;20047;-72
2022/12/02 12:02:22;;;;;;;6.00;3.50;;;;;;;;;;4981046;28;20039;-72
2022/12/02 12:04:59;;;;;;;6.80;3.70;;;;;;;;;;4979369;28;20043;-72
2022/12/02 12:07:48;;;;;;;9.63;3.50;;;;;;;;;;4977241;28;20046;-72
2022/12/02 12:10:30;;;;;;;5.47;3.20;;;;;;;;;;4974784;28;20041;-72
2022/12/02 12:13:21;;;;;;;6.75;3.25;;;;;;;;;;4984341;28;20386;-72
2022/12/02 12:16:06;;;;;;;9.98;3.83;;;;;;;;;;4990783;28;20040;-73
2022/12/02 12:18:37;;;;;;;6.15;3.25;;;;;;;;;;4971987;28;20159;-72
2022/12/02 12:21:04;;;;;;;5.82;3.80;;;;;;;;;;4977588;28;20050;-73
2022/12/02 12:23:38;;;;;;;8.55;3.95;;;;;;;;;;4977517;28;20034;-72
2022/12/02 12:26:05;;;;;;;5.82;3.50;;;;;;;;;;4980687;28;20088;-72
2022/12/02 12:28:32;;;;;;;8.45;3.50;;;;;;;;;;4986662;28;20053;-72
2022/12/02 12:30:59;;;;;;;7.63;3.70;;;;;;;;;;4985813;28;20033;-74
2022/12/02 12:33:25;;;;;;;9.10;3.67;;;;;;;;;;4972493;28;20038;-72
2022/12/02 12:35:54;;;;;;;7.82;3.78;;;;;;;;;;4982699;28;20453;-73
2022/12/02 12:38:21;;;;;;;5.68;3.30;;;;;;;;;;4977205;28;20876;-73
2022/12/02 12:40:46;;;;;;;10.70;3.83;;;;;;;;;;4984696;28;20490;-73
2022/12/02 12:43:11;;;;;;;8.52;3.80;;;;;;;;;;4986853;28;20058;-72
2022/12/02 12:45:37;;;;;;;7.50;4.65;;;;;;;;;;4987265;28;20462;-73
2022/12/02 12:48:02;;;;;;;7.25;3.88;;;;;;;;;;4987758;28;20133;-72
2022/12/02 12:50:28;;;;;;;5.60;3.58;;;;;;;;;;4984083;28;20038;-72
2022/12/02 12:52:53;;;;;;;8.18;3.70;;;;;;;;;;4972371;28;20093;-72
2022/12/02 12:55:19;;;;;;;7.47;3.13;;;;;;;;;;4983246;28;20046;-72
2022/12/02 12:57:44;;;;;;;6.57;3.60;;;;;;;;;;4979235;28;20053;-73
2022/12/02 13:00:10;;;;;;;6.47;3.78;;;;;;;;;;4987607;28;20467;-72
2022/12/02 13:02:36;;;;;;;7.07;3.85;;;;;;;;;;4989429;28;20070;-72
2022/12/02 13:05:01;;;;;;;6.78;3.53;;;;;;;;;;4976459;28;20070;-72
2022/12/02 13:07:26;;;;;;;6.70;3.40;;;;;;;;;;4983999;28;20522;-72
2022/12/02 13:09:52;;;;;;;6.68;3.55;;;;;;;;;;4973443;28;20066;-74
2022/12/02 13:12:17;;;;;;;9.65;3.92;;;;;;;;;;4973306;28;20038;-72
2022/12/02 13:14:42;;;;;;;7.70;4.35;;;;;;;;;;4983577;28;20088;-72
2022/12/02 13:17:08;;;;;;;7.90;3.72;;;;;;;;;;4976010;28;20041;-73
2022/12/02 13:19:33;;;;;;;7.55;4.10;;;;;;;;;;4971324;28;20077;-72
2022/12/02 13:21:59;;;;;;;10.32;4.50;;;;;;;;;;4977026;28;20034;-72
2022/12/02 13:24:24;;;;;;;7.45;4.30;;;;;;;;;;4978743;28;20417;-72
2022/12/02 13:26:49;;;;;;;8.43;3.95;;;;;;;;;;4975772;28;20258;-72
2022/12/02 13:29:15;;;;;;;8.35;4.45;;;;;;;;;;4970672;28;20486;-73
2022/12/02 13:31:40;;;;;;;6.65;3.55;;;;;;;;;;4654117;28;20152;-73
2022/12/02 13:34:05;;;;;;;7.78;4.13;;;;;;;;;;4955884;28;20082;-73
2022/12/02 13:36:31;;;;;;;5.88;3.38;;;;;;;;;;4970290;28;20491;-72
2022/12/02 13:38:56;;;;;;;7.97;4.05;;;;;;;;;;4970284;28;20038;-72
2022/12/02 13:41:22;;;;;;;6.43;3.70;;;;;;;;;;4805999;28;20103;-72
2022/12/02 13:43:47;;;;;;;7.90;4.18;;;;;;;;;;4980213;28;20062;-73
2022/12/02 13:46:12;;;;;;;6.28;3.70;;;;;;;;;;4986777;28;20042;-73
2022/12/02 13:48:38;;;;;;;7.68;3.60;;;;;;;;;;4979165;28;20141;-72
2022/12/02 13:51:03;;;;;;;6.70;4.05;;;;;;;;;;4985267;28;20038;-72
2022/12/02 13:53:29;;;;;;;6.35;3.83;;;;;;;;;;4988164;28;20042;-72
2022/12/02 13:55:54;;;;;;;7.93;4.13;;;;;;;;;;4975345;28;20125;-73
2022/12/02 13:58:19;;;;;;;9.85;4.72;;;;;;;;;;4975660;28;20360;-73
2022/12/02 14:00:45;;;;;;;6.65;3.75;;;;;;;;;;4980840;28;20038;-72
2022/12/02 14:03:10;;;;;;;7.25;4.00;;;;;;;;;;4985372;28;20181;-72
2022/12/02 14:05:36;;;;;;;9.80;4.15;;;;;;;;;;4977254;28;20038;-72
2022/12/02 14:08:02;;;;;;;7.13;4.15;;;;;;;;;;4991149;28;20046;-72
2022/12/02 14:10:29;;;;;;;9.45;4.80;;;;;;;;;;4980551;28;20401;-73
2022/12/02 14:12:55;;;;;;;9.95;4.57;;;;;;;;;;4975751;28;20486;-73
2022/12/02 14:15:22;;;;;;;9.35;4.93;;;;;;;;;;4984209;28;20047;-72
2022/12/02 14:17:47;;;;;;;7.85;4.35;;;;;;;;;;4982759;28;20031;-72
2022/12/02 14:20:12;;;;;;;9.65;4.65;;;;;;;;;;4986287;28;20040;-72
2022/12/02 14:22:38;;;;;;;9.43;4.65;;;;;;;;;;4989709;28;20506;-72
2022/12/02 14:25:03;;;;;;;8.98;4.82;;;;;;;;;;4981965;28;20077;-72
2022/12/02 14:27:29;;;;;;;9.05;5.35;;;;;;;;;;4977288;28;20461;-72
2022/12/02 14:29:54;;;;;;;8.95;4.78;;;;;;;;;;4978837;28;20385;-73
2022/12/02 14:32:19;;;;;;;10.90;4.97;;;;;;;;;;4980073;28;20074;-73
2022/12/02 14:34:45;;;;;;;9.63;4.90;;;;;;;;;;4978924;28;20037;-73
2022/12/02 14:37:10;;;;;;;12.75;5.20;;;;;;;;;;4988061;28;20046;-74
2022/12/02 14:39:35;;;;;;;9.35;5.03;;;;;;;;;;4986215;28;20471;-72
2022/12/02 14:42:01;;;;;;;16.85;5.70;;;;;;;;;;4975722;28;20125;-73
2022/12/02 14:44:26;;;;;;;10.57;5.25;;;;;;;;;;4978407;28;20039;-72
2022/12/02 14:46:52;;;;;;;10.40;5.40;;;;;;;;;;4982876;28;20051;-72
2022/12/02 14:49:17;;;;;;;10.75;4.90;;;;;;;;;;4988499;28;20031;-72